Weather observations for the past three days for
Bay City, Bay City Municipal Airport
Imperial (Metric)
Date Time (cdt) Wind (mph) Vis. (mi.) Weather Sky Cond. Temperature (ºF) Relative Humidity Wind Chill (°F) Heat Index (°F) Pressure Precipitation (in)
Air Dwpt 6 hour altimeter (in) sea level (mb) 1 hr 3 hr 6 hr
Max. Min.
07 22:35 E 7 10.00 Overcast OVC024 72.5 71.6 97% 29.89 0.0
07 22:15 E 5 10.00 Overcast OVC025 72.5 71.6 97% 29.91 0.0
07 21:55 E 7 10.00 Overcast OVC025 72.9 71.4 95% 29.9 0.0
07 21:35 E 7 10.00 Overcast OVC026 72.1 71.4 98% 29.88 0.0
07 21:15 NE 3 10.00 Overcast OVC028 71.8 71.6 99% 29.89 0.0
07 20:55 NW 3 9.00 Light Rain BKN028 72 71.4 98% 29.89 0.0
07 20:35 E 3 8.00 Light Rain BKN025 72.1 71.1 96% 29.89 0.0
07 20:15 Calm 10.00 Overcast OVC024 72.5 70.7 94% 29.89 0.0
07 19:55 NE 3 10.00 Overcast OVC023 72.5 70.7 94% 29.88 0.0
07 19:35 NE 3 10.00 Overcast OVC022 72.5 70.3 93% 29.87 0.0
07 19:15 NE 3 10.00 Overcast OVC023 72.9 70 91% 29.87 0.0
07 18:55 E 6 10.00 Overcast OVC022 73 70.5 92% 29.87 0.0
07 18:35 E 5 10.00 Overcast OVC024 73.4 70.3 90% 29.88 0.0
07 18:15 NE 6 10.00 Overcast OVC025 73.6 69.8 88% 29.87 0.0
07 17:55 NE 8 10.00 Overcast OVC025 73.2 69.8 89% 29.87 0.0
07 17:35 NE 8 10.00 Overcast OVC025 73.6 69.6 87% 29.87 0.0
07 17:15 NE 9 10.00 Overcast OVC026 73.4 69.4 87% 29.87 0.0
07 16:55 NE 6 10.00 Overcast FEW021 OVC027 73.4 69.6 88% 29.88 0.0
07 16:35 NE 7 10.00 Mostly Cloudy SCT020 BKN026 73.2 69.1 87% 29.88 0.0
07 16:15 NE 12 10.00 Overcast OVC020 72.9 68.7 87% 29.88 0.0
07 15:15 NE 7 10.00 Overcast OVC019 70.3 67.3 90% 29.91 0.0
07 14:55 N 7 9.00 Overcast OVC018 70 67.1 91% 29.92 0.0
07 14:35 N 9 9.00 Overcast OVC017 69.3 66.6 91% 29.92 0.0
07 14:15 N 6 9.00 Overcast OVC017 69.3 66.7 92% 29.93 0.0
07 13:55 N 10 3.00 Fog/Mist OVC016 69.3 66.7 92% 29.94 0.0
07 13:35 N 9 10.00 Overcast OVC016 70 67.3 91% 29.94 0.0
07 13:15 N 10 9.00 Overcast OVC016 70 67.3 91% 29.94 0.0
07 12:55 N 13 9.00 Overcast OVC016 70.2 67.5 91% 29.94 0.0
07 12:35 N 10 10.00 Overcast OVC016 70.3 67.6 91% 29.94 0.0
07 12:15 N 10 10.00 Overcast OVC016 69.6 66.7 91% 29.95 0.0
07 11:55 N 9 10.00 Overcast OVC015 69.8 66.9 91% 29.94 0.0
07 11:35 N 14 9.00 Overcast OVC015 69.4 66.7 91% 29.94 0.0
07 11:15 N 13 9.00 Overcast OVC015 69.3 67.1 93% 29.94 0.0
07 10:55 N 12 8.00 Overcast OVC014 69.3 67.5 94% 29.94 0.0
07 10:35 N 13 8.00 Overcast OVC014 69.1 67.5 95% 29.94 0.0
07 10:15 N 12 9.00 Overcast OVC013 69.1 67.5 95% 29.93 0.0
07 09:55 N 15 G 21 8.00 Overcast OVC013 68.5 67.1 95% 29.93 0.0
07 09:35 N 10 8.00 Overcast OVC013 68.5 67.3 96% 29.94 0.0
07 09:15 N 10 7.00 Overcast OVC014 68.7 67.6 96% 29.94 0.0
07 08:55 N 12 G 17 8.00 Overcast OVC014 68.5 67.1 95% 29.93 0.0
07 08:35 NE 12 G 17 8.00 Overcast OVC014 68.5 66.9 95% 29.91 0.0
07 08:15 N 13 8.00 Overcast OVC014 68.2 66.9 96% 29.9 0.0
07 07:55 N 10 8.00 Overcast OVC014 68.2 66.7 95% 29.9 0.0
07 07:35 N 9 9.00 Overcast OVC015 68 66.6 95% 29.91 0.0
07 07:15 N 9 10.00 Overcast OVC013 68.4 66.9 95% 29.92 0.0
07 06:55 N 7 10.00 Overcast OVC013 68.4 66.6 94% 29.89 0.0
07 06:35 N 6 10.00 Overcast OVC013 68.4 66.7 95% 29.88 0.0
07 06:15 Vrbl 6 10.00 Overcast OVC014 68.2 66.9 96% 29.88 0.0
07 05:55 Vrbl 7 10.00 Overcast OVC014 68.2 66.7 95% 29.88 0.0
07 05:35 Vrbl 7 10.00 Overcast OVC014 68.4 66.9 95% 29.87 0.0
07 05:15 N 8 10.00 Overcast OVC014 68.4 66.9 95% 29.87 0.0
07 04:55 N 7 10.00 Overcast OVC013 68.2 66.7 95% 29.86 0.0
07 04:35 N 8 10.00 Overcast OVC013 68.4 66.7 95% 29.86 0.0
07 04:15 N 6 10.00 Overcast OVC013 68.4 66.9 95% 29.85 0.0
07 03:55 N 7 10.00 Overcast OVC013 68.5 66.9 95% 29.86 0.0
07 03:35 N 8 10.00 Overcast OVC014 68.7 67.1 95% 29.85 0.0
07 03:15 N 9 10.00 Overcast OVC013 69.4 67.6 94% 29.85 0.0
07 02:55 N 9 10.00 Overcast OVC013 69.4 68 95% 29.85 0.0
07 02:35 N 10 10.00 Overcast OVC013 69.6 68.2 95% 29.86 0.0
07 02:15 N 9 10.00 Overcast OVC013 70 68 93% 29.86 0.0
07 01:55 N 9 10.00 Overcast OVC012 70.3 68.2 93% 29.86 0.0
07 01:35 N 8 10.00 Overcast OVC011 70.7 68.7 93% 29.87 0.0
07 01:15 N 8 10.00 Overcast OVC010 70.9 68.9 94% 29.86 0.0
07 00:55 N 9 10.00 Overcast OVC010 71.2 69.4 94% 29.85 0.0
07 00:35 N 8 10.00 Overcast OVC010 71.4 70 95% 29.85 0.0
07 00:15 N 7 10.00 Overcast OVC010 71.6 70.2 95% 29.85 0.0
06 23:55 N 9 10.00 Overcast OVC010 72.1 70.2 94% 29.85 0.0
06 23:35 N 9 10.00 Overcast OVC011 72.5 71.2 96% 29.85 0.0
06 23:15 N 12 10.00 Overcast OVC011 72.9 71.6 96% 29.84 0.0
06 22:55 N 14 10.00 Overcast OVC010 73.8 72.5 96% 29.84 0.0
06 22:35 N 12 10.00 Mostly Cloudy BKN008 BKN018 74.1 74.1 100% 29.84 0.0
06 22:15 NW 5 9.00 Partly Cloudy SCT018 76.8 76.8 100% 77 29.82 0.0
06 21:55 Calm 10.00 Fair CLR 77.2 77.2 100% 78 29.81 0.0
06 21:35 SE 3 10.00 Fair CLR 77.2 77.2 100% 78 29.8 0.0
06 21:15 SE 7 10.00 Fair CLR 77.9 77.9 100% 80 29.79 0.0
06 20:55 Calm 10.00 Fair CLR 78.4 78.4 100% 82 29.79 0.0
06 20:35 Calm 10.00 Fair CLR 78.8 78.8 100% 83 29.78 0.0
06 20:15 Calm 10.00 Fair CLR 79 79 100% 84 29.77 0.0
06 19:55 Calm 10.00 Fair CLR 79.5 79.5 100% 86 29.76 0.0
06 19:35 SE 8 10.00 A Few Clouds FEW014 79.9 79.9 100% 87 29.76 0.0
06 19:15 SE 8 10.00 Partly Cloudy SCT014 80.8 80.1 98% 89 29.76 0.0
06 18:55 SE 6 10.00 Fair CLR 81 80.1 97% 90 29.75 0.0
06 18:35 SE 6 10.00 Fair CLR 81.1 80.2 97% 91 29.74 0.0
06 18:15 SE 7 10.00 Fair CLR 81.1 79.9 96% 90 29.74 0.0
06 17:55 SE 8 10.00 A Few Clouds FEW016 81.5 80.2 96% 92 29.74 0.0
06 17:35 SE 7 10.00 Partly Cloudy SCT016 81.5 80.2 96% 92 29.74 0.0
06 17:15 SE 8 10.00 Mostly Cloudy BKN016 81.9 80.2 95% 92 29.74 0.0
06 16:55 SE 10 10.00 Partly Cloudy SCT015 82.2 80.4 94% 94 29.74 0.0
06 16:35 SE 10 10.00 A Few Clouds FEW024 81.5 80.1 95% 91 29.75 0.0
06 16:15 S 12 10.00 Partly Cloudy FEW017 SCT024 81.1 79.7 95% 90 29.75 0.0
06 15:55 S 12 10.00 Mostly Cloudy SCT018 BKN030 81.3 79.9 95% 91 29.76 0.0
06 15:35 S 14 10.00 Mostly Cloudy SCT019 BKN030 83.1 80.6 92% 96 29.75 0.0
06 15:15 SE 15 10.00 Partly Cloudy SCT020 84.2 81 90% 99 29.75 0.0
06 14:55 S 9 10.00 Partly Cloudy SCT020 SCT320 84.4 81.1 90% 99 29.75 0.0
06 14:35 S 12 10.00 Mostly Cloudy SCT019 BKN300 BKN370 83.7 80.6 91% 97 29.76 0.0
06 14:15 S 13 10.00 Mostly Cloudy FEW017 SCT250 SCT300 SCT350 BKN380 84 81.1 91% 99 29.77 0.0
06 13:55 S 10 10.00 Mostly Cloudy SCT017 SCT250 SCT330 BKN350 83.8 81.1 92% 98 29.79 0.0
06 13:35 S 12 10.00 Mostly Cloudy BKN016 BKN021 82.2 80.4 94% 94 29.79 0.0
06 13:15 S 12 8.00 Mostly Cloudy BKN017 81.5 80.2 96% 92 29.8 0.0
06 12:55 S 10 10.00 Partly Cloudy SCT015 82 80.4 95% 93 29.8 0.0
06 12:35 S 12 10.00 Partly Cloudy FEW013 SCT330 SCT380 81.1 80.2 97% 91 29.8 0.0
06 12:15 SE 9 10.00 Mostly Cloudy SCT013 SCT018 BKN360 81.1 80.6 98% 91 29.8 0.0
06 11:55 SE 8 9.00 Partly Cloudy SCT015 79.7 79.7 100% 86 29.8 0.0
06 11:35 S 10 8.00 Partly Cloudy SCT013 80.1 79.9 99% 87 29.8 0.0
06 11:15 S 8 6.00 Fog/Mist SCT013 79.2 79.2 100% 84 29.8 0.0
06 10:55 SE 8 6.00 Fog/Mist FEW012 78.8 78.8 100% 83 29.79 0.0
06 10:35 SE 9 7.00 A Few Clouds FEW012 78.4 78.4 100% 82 29.78 0.0
06 10:15 SE 9 6.00 Fog/Mist SCT013 78.3 78.3 100% 81 29.78 0.0
06 09:55 SE 9 6.00 Fog/Mist SCT010 77.5 77.5 100% 79 29.78 0.0
06 09:35 SE 9 7.00 Partly Cloudy SCT010 77.2 77.2 100% 78 29.77 0.0
06 09:15 E 5 7.00 Mostly Cloudy BKN010 76.8 76.8 100% 77 29.77 0.0
06 08:55 NE 3 7.00 Mostly Cloudy BKN009 76.8 76.8 100% 77 29.77 0.0
06 08:35 E 5 7.00 A Few Clouds FEW009 76.6 76.6 100% 77 29.76 0.0
06 08:15 E 5 7.00 A Few Clouds FEW007 76.5 76.5 100% 76 29.77 0.0
06 07:55 SE 5 8.00 Mostly Cloudy BKN008 BKN014 76.3 76.3 100% 76 29.77 0.0
06 07:35 E 3 7.00 A Few Clouds FEW013 76.3 76.3 100% 76 29.76 0.0
06 07:15 SE 5 6.00 Fog/Mist CLR 76.1 76.1 100% 75 29.76 0.0
06 06:55 SE 6 7.00 A Few Clouds FEW009 76.1 76.1 100% 75 29.76 0.0
06 06:35 SE 5 9.00 Partly Cloudy FEW008 SCT012 76.1 76.1 100% 75 29.75 0.0
06 06:15 SE 8 9.00 A Few Clouds FEW010 75.9 75.9 100% 75 29.75 0.0
06 05:55 SE 7 8.00 Partly Cloudy SCT010 75.7 75.7 100% 74 29.75 0.0
06 05:35 SE 6 8.00 Fair CLR 75.2 75.2 100% 73 29.74 0.0
06 05:15 SE 7 8.00 Fair CLR 75 75 100% 72 29.74 0.0
06 04:55 SE 7 9.00 Fair CLR 75 75 100% 72 29.74 0.0
06 04:35 SE 6 9.00 Fair CLR 75 75 100% 72 29.73 0.0
06 04:15 SE 7 8.00 Fair CLR 75.4 75.4 100% 73 29.73 0.0
06 03:55 SE 8 8.00 Fair CLR 75 75 100% 72 29.73 0.0
06 03:35 SE 7 7.00 Fair CLR 75.2 75.2 100% 73 29.74 0.0
06 03:15 SE 7 7.00 Fair CLR 75.2 75.2 100% 73 29.74 0.0
06 02:55 SE 8 8.00 A Few Clouds FEW009 75.2 75.2 100% 73 29.75 0.0
06 02:35 SE 7 8.00 Overcast OVC009 75.6 75.6 100% 74 29.75 0.0
06 02:15 SE 7 9.00 Overcast OVC009 76.1 76.1 100% 75 29.76 0.0
06 01:55 SE 7 9.00 Overcast OVC010 76.5 76.5 100% 76 29.77 0.0
06 01:35 SE 9 9.00 Overcast OVC010 76.6 76.6 100% 77 29.77 0.0
06 00:55 SE 9 9.00 Overcast OVC010 76.5 76.5 100% 76 29.76 0.0
06 00:35 SE 9 9.00 Overcast OVC009 76.5 76.5 100% 76 29.77 0.0
06 00:15 SE 13 9.00 Mostly Cloudy BKN009 BKN016 BKN044 76.8 76.8 100% 77 29.76 0.0
05 23:55 SE 12 10.00 Mostly Cloudy BKN010 BKN016 77 77 100% 78 29.76 0.0
05 23:35 SE 12 9.00 Overcast BKN010 OVC017 77 77 100% 78 29.76 0.0
05 23:15 S 12 9.00 Overcast BKN010 OVC017 77 77 100% 78 29.76 0.0
05 22:55 SE 14 10.00 Overcast BKN010 OVC018 77.2 77.2 100% 78 29.76 0.0
05 22:35 SE 12 10.00 Overcast SCT010 OVC018 77.2 77.2 100% 78 29.76 0.0
05 22:15 S 9 9.00 Overcast BKN011 OVC019 77.2 77.2 100% 78 29.76 0.0
05 21:55 S 10 10.00 Overcast BKN011 OVC018 77.2 77.2 100% 78 29.75 0.0
05 21:35 S 13 10.00 Overcast SCT012 OVC021 77.2 77.2 100% 78 29.74 0.0
05 21:15 SE 12 10.00 Overcast SCT014 OVC020 77 77 100% 78 29.74 0.0
05 20:55 S 9 10.00 Overcast BKN014 OVC020 77 77 100% 78 29.73 0.0
05 20:35 S 10 9.00 Mostly Cloudy BKN013 BKN021 77 77 100% 78 29.72 0.0
05 20:15 SE 12 9.00 Mostly Cloudy SCT014 BKN021 BKN028 77.2 77.2 100% 78 29.71 0.0
05 19:55 S 10 8.00 Overcast SCT015 BKN021 OVC027 77.5 77.5 100% 79 29.71 0.0
05 19:35 SE 10 9.00 Mostly Cloudy BKN014 BKN021 77.7 77.7 100% 80 29.7 0.0
05 19:15 S 14 8.00 Mostly Cloudy SCT013 BKN020 BKN027 BKN036 78.1 78.1 100% 81 29.71 0.0
05 18:55 S 14 9.00 Mostly Cloudy BKN013 BKN021 78.3 78.3 100% 81 29.71 0.0
05 18:35 S 14 9.00 Mostly Cloudy BKN015 BKN022 BKN039 78.6 78.1 98% 82 29.71 0.0
05 18:15 SE 13 10.00 Mostly Cloudy FEW016 SCT023 BKN040 78.8 77.9 97% 83 29.71 0.0
05 17:55 S 14 10.00 Mostly Cloudy FEW016 SCT023 BKN041 79.3 78.1 96% 84 29.71 0.0
05 17:35 S 15 10.00 Mostly Cloudy SCT020 BKN041 79.7 78.1 95% 85 29.72 0.0
05 17:15 S 15 9.00 Mostly Cloudy SCT019 SCT026 BKN040 80.1 77.7 93% 86 29.72 0.0
05 16:55 S 16 10.00 Overcast SCT020 BKN027 BKN034 OVC041 80.6 77.2 89% 87 29.73 0.0
05 16:35 S 20 10.00 Overcast SCT020 BKN029 OVC035 80.6 77.2 89% 87 29.73 0.0
05 16:15 S 17 G 23 10.00 Mostly Cloudy FEW021 BKN032 BKN042 80.6 77.5 90% 87 29.73 0.0
05 15:55 S 21 10.00 Mostly Cloudy and Breezy SCT019 BKN030 BKN039 82.6 78.3 87% 92 29.75 0.0
05 15:35 S 15 10.00 Overcast SCT019 OVC034 80.1 77.5 92% 86 29.75 0.0
05 15:15 S 15 G 24 10.00 Overcast SCT020 BKN028 OVC036 80.8 77.5 90% 88 29.76 0.0
05 14:55 S 18 10.00 Overcast SCT020 BKN030 OVC037 80.4 77.5 91% 87 29.76 0.0
05 14:35 S 21 10.00 Mostly Cloudy and Breezy FEW020 SCT026 BKN033 BKN041 80.8 77.7 90% 88 29.77 0.0
05 14:15 S 18 10.00 Mostly Cloudy FEW019 SCT026 BKN034 81 77.5 89% 88 29.77 0.0
05 13:55 S 20 G 25 10.00 Overcast SCT020 BKN029 OVC036 81 77.4 89% 88 29.77 0.0
05 13:35 S 18 G 24 10.00 Mostly Cloudy SCT019 SCT026 BKN035 82.4 78.3 87% 92 29.78 0.0
05 13:15 S 15 10.00 Overcast SCT019 BKN024 OVC031 81 78.1 91% 89 29.78 0.0
05 12:55 S 18 10.00 Mostly Cloudy BKN018 BKN028 80.6 77.5 90% 87 29.78 0.0
05 12:35 S 16 10.00 Overcast BKN018 BKN027 OVC033 80.4 77.9 92% 87 29.79 0.0
05 12:15 S 18 G 24 10.00 Overcast BKN018 BKN027 OVC035 80.4 77.4 90% 87 29.79 0.0
05 11:55 S 20 G 23 10.00 Overcast BKN017 BKN026 OVC034 79.3 77.4 94% 84 29.79 0.0
05 11:35 S 14 10.00 Overcast BKN018 BKN026 OVC034 79.2 77.4 94% 84 29.79 0.0
05 11:15 S 18 10.00 Overcast SCT018 BKN028 OVC034 79 77.4 95% 83 29.79 0.0
05 10:55 S 17 10.00 Overcast SCT019 BKN027 OVC035 79.3 77.2 93% 84 29.78 0.0
05 10:35 S 17 G 22 10.00 Overcast BKN017 BKN025 OVC035 79.2 77 93% 84 29.78 0.0
05 10:15 S 16 10.00 Overcast BKN017 BKN027 OVC035 78.6 76.8 94% 82 29.78 0.0
05 09:55 S 18 10.00 Overcast BKN018 BKN028 OVC035 78.3 76.6 95% 81 29.78 0.0
05 09:35 S 17 10.00 Overcast SCT016 BKN023 OVC029 77.4 76.5 97% 79 29.78 0.0
05 09:15 S 15 10.00 Overcast SCT016 OVC024 77.2 76.6 98% 78 29.78 0.0
05 08:55 S 15 G 22 10.00 Overcast BKN013 OVC024 77 76.6 99% 78 29.77 0.0
05 08:35 S 15 10.00 Overcast BKN012 BKN018 OVC037 76.6 76.6 100% 77 29.78 0.0
05 08:15 S 13 10.00 Overcast BKN012 BKN020 OVC030 75.9 75.9 100% 75 29.77 0.0
05 07:55 S 14 9.00 Mostly Cloudy BKN014 BKN021 BKN030 75.4 75.4 100% 73 29.76 0.0
05 07:35 S 14 9.00 Overcast BKN014 OVC022 75 75 100% 72 29.76 0.0
05 07:15 S 12 8.00 Overcast BKN013 OVC021 74.3 74.3 100% 29.76 0.0
05 06:55 S 8 8.00 Mostly Cloudy SCT016 BKN022 73.8 73.8 100% 29.76 0.0
05 06:35 S 8 9.00 Overcast SCT014 OVC021 73.8 73.8 100% 29.75 0.0
05 06:15 S 8 10.00 Overcast BKN016 OVC023 73.9 73.9 100% 29.76 0.0
05 05:55 S 9 10.00 Overcast BKN017 OVC025 73.8 73.8 100% 29.75 0.0
05 05:35 S 9 10.00 Overcast SCT016 OVC025 73.6 73.6 100% 29.75 0.0
05 05:15 S 9 10.00 Overcast SCT016 OVC025 73.8 73.8 100% 29.76 0.0
05 04:55 S 8 10.00 Mostly Cloudy SCT015 BKN024 73.4 73.4 100% 29.76 0.0
05 04:35 S 10 10.00 Partly Cloudy SCT025 73.4 73.4 100% 29.76 0.0
05 04:15 S 12 10.00 Mostly Cloudy SCT019 BKN027 73.6 73.6 100% 29.76 0.0
05 03:55 S 9 10.00 Mostly Cloudy SCT020 BKN028 73.4 73.4 100% 29.76 0.0
05 03:35 S 10 10.00 Partly Cloudy SCT019 SCT028 73.4 73.4 100% 29.76 0.0
05 03:15 S 13 G 20 10.00 Mostly Cloudy FEW019 BKN028 73.6 73.6 100% 29.77 0.0
05 02:55 S 10 10.00 Mostly Cloudy SCT019 BKN028 73.4 73.4 100% 29.78 0.0
05 02:35 S 10 10.00 Mostly Cloudy SCT017 BKN029 73.6 73.4 99% 29.78 0.0
05 02:15 S 12 10.00 Overcast SCT017 OVC029 73.8 73.4 99% 29.78 0.0
05 01:55 S 10 10.00 Overcast FEW020 BKN029 OVC036 73.4 73 99% 29.79 0.0
05 01:35 S 9 10.00 Mostly Cloudy BKN030 72.9 72.5 99% 29.8 0.0
05 01:15 S 10 10.00 Overcast SCT020 OVC030 73.2 72.7 98% 29.81 0.0
05 00:55 S 10 10.00 Mostly Cloudy SCT020 BKN028 73.4 72.7 98% 29.81 0.0
05 00:35 S 9 10.00 Mostly Cloudy SCT020 BKN029 BKN034 BKN310 72.9 72.5 99% 29.82 0.0
05 00:15 S 9 10.00 Mostly Cloudy FEW020 BKN029 72.9 72.1 98% 29.82 0.0
04 23:55 S 12 10.00 Partly Cloudy FEW021 SCT029 72.5 72 98% 29.82 0.0
04 23:35 S 9 10.00 Partly Cloudy SCT030 SCT290 72.3 71.8 98% 29.82 0.0
04 23:15 S 8 10.00 A Few Clouds FEW024 71.6 71.1 98% 29.82 0.0
Date Time (cdt) Wind (mph) Vis. (mi.) Weather Sky Cond. Air Dwpt Max. Min. Relative Humidity Wind Chill (°F) Heat Index (°F) altimeter (in) sea level (mb) 1 hr 3 hr 6 hr
6 hour
Temperature (ºF) Pressure Precipitation (in)